Topi Weather



Topi's Current Weather

Temprature 11.67o clear sky

clear sky

Rain: 0 %

Min Temprature11.67o
Max Temprature11.67o
Humidity59
Wind Speed0.89 m/h
Sun Rise07:12:02
Sun Set17:30:17
Current Time: 23-Jan-2021 19:48:12
Lat/Lon: 34.0704, 72.6236




Topi's Geo Location



Topi's Weather Forecast

Time Overall Temp Min Temp Max Temp Humidity Wind Speed Rain
23-Jan-2021 (Sat)
20:00:00 clear sky 11.190 10.690 11.190 49 0.96 m/h 0 %
23:00:00 clear sky 9.660 9.110 9.660 49 1.28 m/h 0 %
24-Jan-2021 (Sun)
02:00:00 clear sky 7.960 7.710 7.960 55 2.08 m/h 0 %
05:00:00 clear sky 5.980 5.930 5.980 58 1.82 m/h 0 %
08:00:00 clear sky 6.130 6.130 6.130 55 1.76 m/h 0 %
11:00:00 clear sky 13.720 13.720 13.720 33 1.92 m/h 0 %
14:00:00 clear sky 17.640 17.640 17.640 26 2.78 m/h 0 %
17:00:00 clear sky 14.450 14.450 14.450 33 1.88 m/h 0 %
20:00:00 clear sky 10.050 10.050 10.050 41 2.36 m/h 0 %
23:00:00 clear sky 8.680 8.680 8.680 46 3.03 m/h 0 %
25-Jan-2021 (Mon)
02:00:00 clear sky 7.270 7.270 7.270 49 2.93 m/h 0 %
05:00:00 clear sky 6.170 6.170 6.170 50 2.71 m/h 0 %
08:00:00 clear sky 6.680 6.680 6.680 49 2.63 m/h 0 %
11:00:00 clear sky 14.830 14.830 14.830 29 2.05 m/h 0 %
14:00:00 clear sky 18.940 18.940 18.940 23 2.59 m/h 0 %
17:00:00 clear sky 15.300 15.300 15.300 31 1.76 m/h 0 %
20:00:00 clear sky 10.460 10.460 10.460 41 3.18 m/h 0 %
23:00:00 clear sky 8.960 8.960 8.960 45 3.4 m/h 0 %
26-Jan-2021 (Tue)
02:00:00 clear sky 7.660 7.660 7.660 47 3.22 m/h 0 %
05:00:00 clear sky 6.470 6.470 6.470 50 2.68 m/h 0 %
08:00:00 clear sky 6.910 6.910 6.910 49 2.51 m/h 0 %
11:00:00 clear sky 14.620 14.620 14.620 30 1.62 m/h 0 %
14:00:00 clear sky 18.570 18.570 18.570 24 2.37 m/h 0 %
17:00:00 clear sky 15.370 15.370 15.370 31 1.58 m/h 0 %
20:00:00 clear sky 10.770 10.770 10.770 40 2.94 m/h 0 %
23:00:00 clear sky 8.990 8.990 8.990 44 3.47 m/h 0 %
27-Jan-2021 (Wed)
02:00:00 clear sky 7.610 7.610 7.610 47 3.33 m/h 0 %
05:00:00 clear sky 6.260 6.260 6.260 50 2.92 m/h 0 %
08:00:00 clear sky 6.640 6.640 6.640 49 2.78 m/h 0 %
11:00:00 few clouds 14.700 14.700 14.700 29 2.02 m/h 0 %
14:00:00 overcast clouds 18.550 18.550 18.550 23 2.57 m/h 0 %
17:00:00 broken clouds 15.220 15.220 15.220 31 1.57 m/h 0 %
20:00:00 clear sky 10.130 10.130 10.130 41 3.3 m/h 0 %
23:00:00 clear sky 8.250 8.250 8.250 45 3.49 m/h 0 %
28-Jan-2021 (Thu)
02:00:00 clear sky 6.950 6.950 6.950 47 3.28 m/h 0 %
05:00:00 clear sky 5.630 5.630 5.630 50 2.75 m/h 0 %
08:00:00 clear sky 6.230 6.230 6.230 48 2.64 m/h 0 %
11:00:00 clear sky 14.560 14.560 14.560 28 1.8 m/h 0 %
14:00:00 clear sky 18.640 18.640 18.640 23 2.49 m/h 0 %
17:00:00 clear sky 15.240 15.240 15.240 31 1.85 m/h 0 %

Famous Cities (60)